Brooksville, Maine
Current Conditions -  °F | °C
As of 8:35 AM on Friday 28 Nov 2014 (Local Time) from KBHB Reporting Station
Few Clouds Few Clouds  
Wind Chill:   Ceiling: Unl
Heat Index: 19°   Visibility: 10mi
Dew Point: 18°   Wind: 8mph
Humidity: 93%   Direction: 360°N
Pressure: 30.03"   Gusts: NA
Location:  44.35°N, 68.68°W
Report Text: KBHB 281335Z AUTO 36007KT 10SM FEW100 M07/M08 A3003 RMK AO1
Loading
Personal Weather Stations






























Interactive Weather Map New forecast layout! Learn more

10-Day Weather Forecast

Advertisements
Track Severe Weather on mobile